Pagrindinis puslapis
METAR-TAF:

METAR-TAF

Oro uostai :

Cape Lisburne, Aliaska, Jungtinės Amerikos Valstijos

platuma: 68-53N, ilguma: 166-06W, Aukštis: 4 m

Dabartinis oras

Ataskaita buvo paskelbta 52 minutes, ne 21:01 UTC
Vėjas 9 kt iš Pietų/Pietvakarių
Temperatūra 5°C
Drėgmė 81%
Slėgis 1000 hPa
Matomumas: 16.1 km
Išsisklaidę debesys ne aukštis 2800 ft

METAR: PALU 212101Z AUTO 21009KT 10SM SCT028 05/02 A2953 RMK AO2 SLP000

Laikas: 13:53 (21:53 UTC)


TAF: trūkstamas

Orai ataskaitas ir orų prognozės (METAR, TAF).

turimą stotys yra geltonos ir raudonos taškus žemėlapyje.

Perkelti pele per norėdami pamatyti stoties vardą.

Tada spustelėkite, norėdami matyti oro stebėjimo ir prognozės.

Norėdami pakeisti žemėlapį: spustelėkite ant žalios mygtukų su juodo kryžiaus žemyn,; žalią mygtuką su brūkšneliu, jei norite nutolinti; arba žalių rodyklių gretimoms žemėlapius.


METAR-TAF: